Ingalls, IN (46048)

2:38 PM EST on December 25, 2014 (GMT -0500)
Rogers Home Place | Change Station
CLOSE
Current Station
Personal Weather Station
Location: Pendleton, IN
Elevation: 889 ft
Nearby Weather Stations

Elev 889 ft 39.98 °N, 85.73 °W | Updated 2 minutes ago

Overcast
Overcast
39.2 °F
Feels Like 39 °F
N
3.0
Wind Variable Wind from West
Gusts 11.0 mph

Today
High -- | Low -- °F
--% Chance of Precip.
Yesterday
High -- | Low -- °F
Precip. -- in
8:03 AM 5:23 PM
Waxing Crescent, 18% visible
Pressure 30.06 in
Visibility 10.0 miles
Clouds Mostly Cloudy 2300 ft
Windchill 39 °F
Dew Point 35 °F
Humidity 83%
Rainfall 0.02 in
Snow Depth Not available.
UV 1 out of 12
Pollen .10 out of 12
Air Quality Not available.
Flu Activity Not available.
METAR KMQJ 251915Z AUTO 23007KT 10SM BKN023 04/M03 A3006 RMK AO1

More Conditions Fewer Conditions

Pressure 30.06 in
Visibility 10.0 miles
Clouds Mostly Cloudy 2300 ft
Windchill 39 °F
Dew Point 35 °F
Humidity 83%
Rainfall 0.02 in
Snow Depth Not available.
UV 1 out of 12
Pollen .10 out of 12
Air Quality Not available.
Flu Activity Not available.
METAR KMQJ 251915Z AUTO 23007KT 10SM BKN023 04/M03 A3006 RMK AO1

More Conditions Fewer Conditions

10-Day Weather Forecast

Almanac

Astronomy

Dec. 25, 2014 Rise Set
Actual Time
Civil Twilight
Nautical Twilight
Astronomical Twilight
Moon
Length of Visible Light
Length of Day
Tomorrow will be .
, % of the Moon is Illuminated

Today's Extremes

State Highs State Lows

Community

WunderPhotos

Upload Photos

1,780,374 photos uploaded!

WunderBlogs® & News

Nearby

Air Quality

  Air Quality AQ Index Pollutant
Not available.

Snow Depth

Station Depth Elevation

Earthquake Activity

City Distance Mag. Time & Date
Minimum magnitude displayed is 2.5.

Coastal Water Temperatures

Place Temperature

Nearby Weather Stations